sensor_id;sensor_type;location;lat;lon;timestamp;pressure;altitude;pressure_sealevel;temperature;humidity
26775;BME280;14362;51.902;7.626;2023-04-06T00:01:14;101249.94;;;2.64;100.00
26775;BME280;14362;51.902;7.626;2023-04-06T00:05:16;101252.34;;;2.60;100.00
26775;BME280;14362;51.902;7.626;2023-04-06T00:09:19;101252.09;;;2.62;100.00
26775;BME280;14362;51.902;7.626;2023-04-06T00:13:20;101245.41;;;2.53;100.00
26775;BME280;14362;51.902;7.626;2023-04-06T00:17:22;101242.34;;;2.49;100.00
26775;BME280;14362;51.902;7.626;2023-04-06T00:21:23;101242.34;;;2.49;100.00
26775;BME280;14362;51.902;7.626;2023-04-06T00:25:27;101234.88;;;2.45;100.00
26775;BME280;14362;51.902;7.626;2023-04-06T00:29:28;101233.41;;;2.37;100.00
26775;BME280;14362;51.902;7.626;2023-04-06T00:33:30;101226.50;;;2.35;100.00
26775;BME280;14362;51.902;7.626;2023-04-06T00:37:31;101231.69;;;2.31;100.00
26775;BME280;14362;51.902;7.626;2023-04-06T00:41:34;101223.97;;;2.28;100.00
26775;BME280;14362;51.902;7.626;2023-04-06T00:45:35;101217.09;;;2.31;100.00
26775;BME280;14362;51.902;7.626;2023-04-06T00:49:37;101209.63;;;2.26;100.00
26775;BME280;14362;51.902;7.626;2023-04-06T00:53:38;101208.13;;;2.14;100.00
26775;BME280;14362;51.902;7.626;2023-04-06T00:57:41;101208.63;;;2.11;100.00
26775;BME280;14362;51.902;7.626;2023-04-06T01:01:42;101205.50;;;2.02;100.00
26775;BME280;14362;51.902;7.626;2023-04-06T01:05:44;101207.94;;;1.99;100.00
26775;BME280;14362;51.902;7.626;2023-04-06T01:09:45;101191.31;;;1.89;100.00
26775;BME280;14362;51.902;7.626;2023-04-06T01:13:48;101188.03;;;1.87;100.00
26775;BME280;14362;51.902;7.626;2023-04-06T01:17:50;101186.94;;;1.88;100.00
26775;BME280;14362;51.902;7.626;2023-04-06T01:21:51;101181.94;;;1.85;100.00
26775;BME280;14362;51.902;7.626;2023-04-06T01:25:55;101186.38;;;1.86;100.00
26775;BME280;14362;51.902;7.626;2023-04-06T01:29:56;101187.06;;;1.77;100.00
26775;BME280;14362;51.902;7.626;2023-04-06T01:33:58;101179.41;;;1.79;100.00
26775;BME280;14362;51.902;7.626;2023-04-06T01:37:59;101174.84;;;1.68;100.00
26775;BME280;14362;51.902;7.626;2023-04-06T01:42:02;101170.50;;;1.72;100.00
26775;BME280;14362;51.902;7.626;2023-04-06T01:46:04;101162.13;;;1.62;100.00
26775;BME280;14362;51.902;7.626;2023-04-06T01:50:06;101167.06;;;1.60;100.00
26775;BME280;14362;51.902;7.626;2023-04-06T01:54:08;101160.22;;;1.62;100.00
26775;BME280;14362;51.902;7.626;2023-04-06T01:58:10;101159.34;;;1.57;100.00
26775;BME280;14362;51.902;7.626;2023-04-06T02:02:12;101167.00;;;1.55;100.00
26775;BME280;14362;51.902;7.626;2023-04-06T02:06:14;101158.38;;;1.46;100.00
26775;BME280;14362;51.902;7.626;2023-04-06T02:10:15;101154.19;;;1.44;100.00
26775;BME280;14362;51.902;7.626;2023-04-06T02:14:18;101162.06;;;1.35;100.00
26775;BME280;14362;51.902;7.626;2023-04-06T02:18:19;101165.88;;;1.34;100.00
26775;BME280;14362;51.902;7.626;2023-04-06T02:22:21;101166.06;;;1.28;100.00
26775;BME280;14362;51.902;7.626;2023-04-06T02:26:22;101164.69;;;1.25;100.00
26775;BME280;14362;51.902;7.626;2023-04-06T02:30:25;101161.09;;;1.25;100.00
26775;BME280;14362;51.902;7.626;2023-04-06T02:34:26;101155.28;;;1.21;100.00
26775;BME280;14362;51.902;7.626;2023-04-06T02:38:27;101160.94;;;1.15;100.00
26775;BME280;14362;51.902;7.626;2023-04-06T02:42:29;101149.22;;;1.19;100.00
26775;BME280;14362;51.902;7.626;2023-04-06T02:46:32;101154.13;;;1.17;100.00
26775;BME280;14362;51.902;7.626;2023-04-06T02:50:33;101146.16;;;1.16;100.00
26775;BME280;14362;51.902;7.626;2023-04-06T02:54:35;101151.31;;;1.12;100.00
26775;BME280;14362;51.902;7.626;2023-04-06T02:58:36;101143.81;;;1.08;100.00
26775;BME280;14362;51.902;7.626;2023-04-06T03:02:39;101142.34;;;1.00;100.00
26775;BME280;14362;51.902;7.626;2023-04-06T03:06:40;101141.03;;;1.03;100.00
26775;BME280;14362;51.902;7.626;2023-04-06T03:10:41;101148.16;;;1.04;100.00
26775;BME280;14362;51.902;7.626;2023-04-06T03:14:43;101147.50;;;0.97;100.00
26775;BME280;14362;51.902;7.626;2023-04-06T03:18:46;101145.59;;;0.98;100.00
26775;BME280;14362;51.902;7.626;2023-04-06T03:22:48;101145.00;;;0.96;100.00
26775;BME280;14362;51.902;7.626;2023-04-06T03:26:49;101152.59;;;0.89;100.00
26775;BME280;14362;51.902;7.626;2023-04-06T03:30:50;101150.94;;;0.88;100.00
26775;BME280;14362;51.902;7.626;2023-04-06T03:34:53;101143.69;;;0.82;100.00
26775;BME280;14362;51.902;7.626;2023-04-06T03:38:55;101148.09;;;0.83;100.00
26775;BME280;14362;51.902;7.626;2023-04-06T03:42:56;101145.03;;;0.79;100.00
26775;BME280;14362;51.902;7.626;2023-04-06T03:46:58;101136.06;;;0.67;100.00
26775;BME280;14362;51.902;7.626;2023-04-06T03:51:00;101145.81;;;0.75;100.00
26775;BME280;14362;51.902;7.626;2023-04-06T03:55:02;101145.44;;;0.71;100.00
26775;BME280;14362;51.902;7.626;2023-04-06T03:59:04;101143.78;;;0.70;100.00
26775;BME280;14362;51.902;7.626;2023-04-06T04:03:05;101147.78;;;0.63;100.00
26775;BME280;14362;51.902;7.626;2023-04-06T04:07:08;101151.13;;;0.65;100.00
26775;BME280;14362;51.902;7.626;2023-04-06T04:11:09;101154.34;;;0.62;100.00
26775;BME280;14362;51.902;7.626;2023-04-06T04:15:11;101157.69;;;0.64;100.00
26775;BME280;14362;51.902;7.626;2023-04-06T04:19:12;101154.94;;;0.64;100.00
26775;BME280;14362;51.902;7.626;2023-04-06T04:23:15;101156.00;;;0.63;100.00
26775;BME280;14362;51.902;7.626;2023-04-06T04:27:16;101160.00;;;0.55;100.00
26775;BME280;14362;51.902;7.626;2023-04-06T04:31:18;101150.69;;;0.56;100.00
26775;BME280;14362;51.902;7.626;2023-04-06T04:35:22;101152.03;;;0.54;100.00
26775;BME280;14362;51.902;7.626;2023-04-06T04:39:24;101156.34;;;0.50;100.00
26775;BME280;14362;51.902;7.626;2023-04-06T04:43:26;101144.63;;;0.54;100.00
26775;BME280;14362;51.902;7.626;2023-04-06T04:47:27;101148.94;;;0.50;100.00
26775;BME280;14362;51.902;7.626;2023-04-06T04:51:28;101149.22;;;0.49;100.00
26775;BME280;14362;51.902;7.626;2023-04-06T04:55:31;101158.03;;;0.51;100.00
26775;BME280;14362;51.902;7.626;2023-04-06T04:59:34;101150.88;;;0.50;100.00
26775;BME280;14362;51.902;7.626;2023-04-06T05:03:36;101146.78;;;0.52;100.00
26775;BME280;14362;51.902;7.626;2023-04-06T05:07:38;101148.63;;;0.47;100.00
26775;BME280;14362;51.902;7.626;2023-04-06T05:11:41;101147.03;;;0.51;100.00
26775;BME280;14362;51.902;7.626;2023-04-06T05:15:42;101152.53;;;0.51;100.00
26775;BME280;14362;51.902;7.626;2023-04-06T05:19:44;101147.38;;;0.54;100.00
26775;BME280;14362;51.902;7.626;2023-04-06T05:23:46;101140.06;;;0.60;100.00
26775;BME280;14362;51.902;7.626;2023-04-06T05:27:49;101148.97;;;0.67;100.00
26775;BME280;14362;51.902;7.626;2023-04-06T05:31:50;101141.81;;;0.66;100.00
26775;BME280;14362;51.902;7.626;2023-04-06T05:35:52;101144.69;;;0.76;100.00
26775;BME280;14362;51.902;7.626;2023-04-06T05:39:53;101141.22;;;0.80;100.00
26775;BME280;14362;51.902;7.626;2023-04-06T05:43:57;101137.13;;;0.83;100.00
26775;BME280;14362;51.902;7.626;2023-04-06T05:47:58;101131.53;;;0.94;100.00
26775;BME280;14362;51.902;7.626;2023-04-06T05:51:59;101136.84;;;1.00;100.00
26775;BME280;14362;51.902;7.626;2023-04-06T05:56:01;101130.88;;;1.03;100.00
26775;BME280;14362;51.902;7.626;2023-04-06T06:00:05;101139.50;;;1.12;100.00
26775;BME280;14362;51.902;7.626;2023-04-06T06:04:09;101143.13;;;1.17;100.00
26775;BME280;14362;51.902;7.626;2023-04-06T06:08:10;101145.78;;;1.29;100.00
26775;BME280;14362;51.902;7.626;2023-04-06T06:12:11;101139.06;;;1.41;100.00
26775;BME280;14362;51.902;7.626;2023-04-06T06:16:14;101134.94;;;1.60;100.00
26775;BME280;14362;51.902;7.626;2023-04-06T06:20:16;101134.75;;;1.93;100.00
26775;BME280;14362;51.902;7.626;2023-04-06T06:24:17;101135.13;;;2.28;100.00
26775;BME280;14362;51.902;7.626;2023-04-06T06:28:19;101141.66;;;2.48;100.00
26775;BME280;14362;51.902;7.626;2023-04-06T06:32:22;101133.50;;;2.63;100.00
26775;BME280;14362;51.902;7.626;2023-04-06T06:36:23;101139.44;;;2.82;100.00
26775;BME280;14362;51.902;7.626;2023-04-06T06:40:25;101138.75;;;3.01;100.00
26775;BME280;14362;51.902;7.626;2023-04-06T06:44:27;101144.66;;;3.19;100.00
26775;BME280;14362;51.902;7.626;2023-04-06T06:48:30;101133.19;;;3.42;100.00
26775;BME280;14362;51.902;7.626;2023-04-06T06:52:31;101139.91;;;3.61;100.00
26775;BME280;14362;51.902;7.626;2023-04-06T06:56:33;101134.22;;;3.88;100.00
26775;BME280;14362;51.902;7.626;2023-04-06T07:00:36;101126.81;;;3.98;100.00
26775;BME280;14362;51.902;7.626;2023-04-06T07:04:38;101119.41;;;4.28;100.00
26775;BME280;14362;51.902;7.626;2023-04-06T07:08:40;101122.50;;;4.52;100.00
26775;BME280;14362;51.902;7.626;2023-04-06T07:12:41;101119.44;;;4.83;100.00
26775;BME280;14362;51.902;7.626;2023-04-06T07:16:43;101112.78;;;5.04;100.00
26775;BME280;14362;51.902;7.626;2023-04-06T07:20:46;101115.78;;;5.27;100.00
26775;BME280;14362;51.902;7.626;2023-04-06T07:24:48;101114.31;;;5.50;99.67
26775;BME280;14362;51.902;7.626;2023-04-06T07:28:50;101113.38;;;5.74;96.29
26775;BME280;14362;51.902;7.626;2023-04-06T07:32:51;101117.22;;;5.88;92.91
26775;BME280;14362;51.902;7.626;2023-04-06T07:36:55;101103.31;;;6.03;91.20
26775;BME280;14362;51.902;7.626;2023-04-06T07:40:56;101106.56;;;6.15;93.22
26775;BME280;14362;51.902;7.626;2023-04-06T07:44:58;101107.88;;;6.27;84.50
26775;BME280;14362;51.902;7.626;2023-04-06T07:48:59;101107.00;;;6.32;85.41
26775;BME280;14362;51.902;7.626;2023-04-06T07:53:05;101103.75;;;6.58;87.32
26775;BME280;14362;51.902;7.626;2023-04-06T07:57:06;101101.41;;;6.70;85.27
26775;BME280;14362;51.902;7.626;2023-04-06T08:01:08;101094.78;;;7.00;86.27
26775;BME280;14362;51.902;7.626;2023-04-06T08:05:09;101095.44;;;7.15;83.72
26775;BME280;14362;51.902;7.626;2023-04-06T08:09:12;101091.66;;;7.34;80.20
26775;BME280;14362;51.902;7.626;2023-04-06T08:13:14;101096.72;;;7.51;80.83
26775;BME280;14362;51.902;7.626;2023-04-06T08:17:15;101095.66;;;7.70;79.18
26775;BME280;14362;51.902;7.626;2023-04-06T08:21:17;101094.47;;;7.95;71.65
26775;BME280;14362;51.902;7.626;2023-04-06T08:25:19;101099.50;;;7.93;71.00
26775;BME280;14362;51.902;7.626;2023-04-06T08:29:21;101098.84;;;8.01;71.96
26775;BME280;14362;51.902;7.626;2023-04-06T08:33:22;101089.56;;;8.10;70.64
26775;BME280;14362;51.902;7.626;2023-04-06T08:37:25;101090.59;;;8.14;69.95
26775;BME280;14362;51.902;7.626;2023-04-06T08:41:27;101092.06;;;8.30;70.25
26775;BME280;14362;51.902;7.626;2023-04-06T08:45:29;101095.19;;;8.42;70.37
26775;BME280;14362;51.902;7.626;2023-04-06T08:49:31;101088.28;;;8.58;69.94
26775;BME280;14362;51.902;7.626;2023-04-06T08:53:33;101091.41;;;8.70;68.17
26775;BME280;14362;51.902;7.626;2023-04-06T08:57:36;101089.38;;;8.75;69.88
26775;BME280;14362;51.902;7.626;2023-04-06T09:01:40;101084.16;;;8.87;68.25
26775;BME280;14362;51.902;7.626;2023-04-06T09:05:42;101080.97;;;8.94;69.64
26775;BME280;14362;51.902;7.626;2023-04-06T09:09:44;101078.13;;;8.99;65.73
26775;BME280;14362;51.902;7.626;2023-04-06T09:13:51;101068.88;;;9.16;66.16
26775;BME280;14362;51.902;7.626;2023-04-06T09:17:53;101071.88;;;9.33;61.80
26775;BME280;14362;51.902;7.626;2023-04-06T09:22:01;101064.25;;;9.52;61.03
26775;BME280;14362;51.902;7.626;2023-04-06T09:26:08;101068.88;;;9.70;64.85
26775;BME280;14362;51.902;7.626;2023-04-06T09:30:12;101057.47;;;9.72;63.48
26775;BME280;14362;51.902;7.626;2023-04-06T09:34:21;101053.13;;;9.79;58.63
26775;BME280;14362;51.902;7.626;2023-04-06T09:38:23;101049.81;;;9.91;57.55
26775;BME280;14362;51.902;7.626;2023-04-06T09:42:25;101040.00;;;10.28;53.27
26775;BME280;14362;51.902;7.626;2023-04-06T09:46:31;101050.25;;;10.55;51.33
26775;BME280;14362;51.902;7.626;2023-04-06T09:50:33;101051.78;;;10.47;51.84
26775;BME280;14362;51.902;7.626;2023-04-06T09:54:35;101038.69;;;10.70;51.67
26775;BME280;14362;51.902;7.626;2023-04-06T09:58:40;101036.72;;;10.70;51.43
26775;BME280;14362;51.902;7.626;2023-04-06T10:02:56;101037.16;;;10.86;53.40
26775;BME280;14362;51.902;7.626;2023-04-06T10:06:59;101040.06;;;10.81;50.43
26775;BME280;14362;51.902;7.626;2023-04-06T10:11:03;101019.66;;;10.94;53.00
26775;BME280;14362;51.902;7.626;2023-04-06T10:15:07;101032.91;;;10.88;51.86
26775;BME280;14362;51.902;7.626;2023-04-06T10:19:14;101030.66;;;10.99;50.84
26775;BME280;14362;51.902;7.626;2023-04-06T10:23:21;101032.72;;;11.15;51.74
26775;BME280;14362;51.902;7.626;2023-04-06T10:27:28;101029.97;;;11.23;48.79
26775;BME280;14362;51.902;7.626;2023-04-06T10:31:30;101025.25;;;11.32;47.88
26775;BME280;14362;51.902;7.626;2023-04-06T10:35:39;101026.63;;;11.52;46.72
26775;BME280;14362;51.902;7.626;2023-04-06T10:39:47;101022.84;;;11.48;47.50
26775;BME280;14362;51.902;7.626;2023-04-06T10:43:55;101018.69;;;11.67;46.71
26775;BME280;14362;51.902;7.626;2023-04-06T10:47:57;101017.72;;;11.80;44.42
26775;BME280;14362;51.902;7.626;2023-04-06T10:51:59;101016.75;;;12.02;43.96
26775;BME280;14362;51.902;7.626;2023-04-06T10:56:02;101019.25;;;12.03;43.10
26775;BME280;14362;51.902;7.626;2023-04-06T11:00:06;101014.97;;;12.31;43.12
26775;BME280;14362;51.902;7.626;2023-04-06T11:04:08;101017.25;;;12.46;44.66
26775;BME280;14362;51.902;7.626;2023-04-06T11:08:24;100994.88;;;12.71;42.15
26775;BME280;14362;51.902;7.626;2023-04-06T11:12:27;101006.03;;;12.80;43.47
26775;BME280;14362;51.902;7.626;2023-04-06T11:16:31;101000.63;;;12.75;43.17
26775;BME280;14362;51.902;7.626;2023-04-06T11:20:33;100994.34;;;12.86;41.17
26775;BME280;14362;51.902;7.626;2023-04-06T11:24:35;101003.25;;;12.80;40.90
26775;BME280;14362;51.902;7.626;2023-04-06T11:28:37;101011.31;;;12.90;40.98
26775;BME280;14362;51.902;7.626;2023-04-06T11:32:42;101006.63;;;13.11;41.74
26775;BME280;14362;51.902;7.626;2023-04-06T11:36:46;100998.41;;;13.06;41.30
26775;BME280;14362;51.902;7.626;2023-04-06T11:40:53;100982.16;;;13.36;41.67
26775;BME280;14362;51.902;7.626;2023-04-06T11:44:56;100982.16;;;13.65;41.74
26775;BME280;14362;51.902;7.626;2023-04-06T11:48:58;100979.34;;;13.94;38.67
26775;BME280;14362;51.902;7.626;2023-04-06T11:53:00;100981.03;;;13.58;38.63
26775;BME280;14362;51.902;7.626;2023-04-06T11:57:05;100978.25;;;13.58;39.32
26775;BME280;14362;51.902;7.626;2023-04-06T12:01:06;100977.91;;;13.30;38.46
26775;BME280;14362;51.902;7.626;2023-04-06T12:05:08;100973.31;;;13.26;39.19
26775;BME280;14362;51.902;7.626;2023-04-06T12:09:10;100968.56;;;13.55;38.89
26775;BME280;14362;51.902;7.626;2023-04-06T12:13:13;100967.28;;;13.73;38.03
26775;BME280;14362;51.902;7.626;2023-04-06T12:17:15;100965.59;;;13.81;37.04
26775;BME280;14362;51.902;7.626;2023-04-06T12:21:16;100963.25;;;14.03;37.05
26775;BME280;14362;51.902;7.626;2023-04-06T12:25:18;100956.38;;;14.21;38.78
26775;BME280;14362;51.902;7.626;2023-04-06T12:29:21;100958.78;;;14.31;37.02
26775;BME280;14362;51.902;7.626;2023-04-06T12:33:22;100952.97;;;14.16;36.22
26775;BME280;14362;51.902;7.626;2023-04-06T12:37:24;100956.28;;;14.50;37.16
26775;BME280;14362;51.902;7.626;2023-04-06T12:41:27;100950.41;;;14.75;37.45
26775;BME280;14362;51.902;7.626;2023-04-06T12:45:30;100943.84;;;14.83;34.95
26775;BME280;14362;51.902;7.626;2023-04-06T12:49:32;100947.28;;;15.01;36.14
26775;BME280;14362;51.902;7.626;2023-04-06T12:53:34;100947.03;;;14.94;35.99
26775;BME280;14362;51.902;7.626;2023-04-06T12:57:36;100947.28;;;14.89;34.37
26775;BME280;14362;51.902;7.626;2023-04-06T13:01:39;100943.03;;;14.71;35.86
26775;BME280;14362;51.902;7.626;2023-04-06T13:05:43;100944.47;;;14.89;36.47
26775;BME280;14362;51.902;7.626;2023-04-06T13:09:45;100943.31;;;14.90;36.55
26775;BME280;14362;51.902;7.626;2023-04-06T13:13:47;100935.78;;;14.70;37.04
26775;BME280;14362;51.902;7.626;2023-04-06T13:17:50;100934.84;;;14.78;37.21
26775;BME280;14362;51.902;7.626;2023-04-06T13:21:51;100925.75;;;14.93;38.31
26775;BME280;14362;51.902;7.626;2023-04-06T13:25:59;100926.22;;;14.83;38.31
26775;BME280;14362;51.902;7.626;2023-04-06T13:30:02;100922.94;;;14.93;38.11
26775;BME280;14362;51.902;7.626;2023-04-06T13:34:05;100913.13;;;14.99;36.10
26775;BME280;14362;51.902;7.626;2023-04-06T13:38:06;100913.56;;;14.65;38.88
26775;BME280;14362;51.902;7.626;2023-04-06T13:42:08;100916.25;;;14.61;38.04
26775;BME280;14362;51.902;7.626;2023-04-06T13:46:10;100911.25;;;14.46;38.44
26775;BME280;14362;51.902;7.626;2023-04-06T13:50:13;100912.09;;;14.47;38.57
26775;BME280;14362;51.902;7.626;2023-04-06T13:54:14;100919.66;;;14.34;38.04
26775;BME280;14362;51.902;7.626;2023-04-06T13:58:16;100906.72;;;14.54;40.02
26775;BME280;14362;51.902;7.626;2023-04-06T14:02:17;100905.22;;;14.56;39.54
26775;BME280;14362;51.902;7.626;2023-04-06T14:06:21;100903.31;;;14.48;39.35
26775;BME280;14362;51.902;7.626;2023-04-06T14:10:22;100903.00;;;14.50;39.06
26775;BME280;14362;51.902;7.626;2023-04-06T14:14:27;100902.06;;;14.58;39.72
26775;BME280;14362;51.902;7.626;2023-04-06T14:18:28;100895.97;;;14.56;39.96
26775;BME280;14362;51.902;7.626;2023-04-06T14:22:32;100896.66;;;14.41;40.16
26775;BME280;14362;51.902;7.626;2023-04-06T14:26:34;100887.34;;;14.49;40.35
26775;BME280;14362;51.902;7.626;2023-04-06T14:30:36;100888.81;;;14.46;41.51
26775;BME280;14362;51.902;7.626;2023-04-06T14:34:38;100887.38;;;14.29;41.59
26775;BME280;14362;51.902;7.626;2023-04-06T14:38:41;100891.22;;;14.24;41.59
26775;BME280;14362;51.902;7.626;2023-04-06T14:42:44;100877.47;;;14.11;42.26
26775;BME280;14362;51.902;7.626;2023-04-06T14:46:45;100886.16;;;14.18;41.72
26775;BME280;14362;51.902;7.626;2023-04-06T14:50:51;100878.50;;;14.06;42.75
26775;BME280;14362;51.902;7.626;2023-04-06T14:54:54;100873.56;;;14.03;43.86
26775;BME280;14362;51.902;7.626;2023-04-06T14:58:57;100880.78;;;13.92;45.33
26775;BME280;14362;51.902;7.626;2023-04-06T15:02:58;100883.97;;;13.82;45.24
26775;BME280;14362;51.902;7.626;2023-04-06T15:07:00;100886.50;;;13.55;46.21
26775;BME280;14362;51.902;7.626;2023-04-06T15:11:03;100880.47;;;13.44;47.02
26775;BME280;14362;51.902;7.626;2023-04-06T15:15:05;100887.03;;;13.48;46.65
26775;BME280;14362;51.902;7.626;2023-04-06T15:19:07;100885.81;;;13.37;47.20
26775;BME280;14362;51.902;7.626;2023-04-06T15:23:08;100891.97;;;13.23;48.27
26775;BME280;14362;51.902;7.626;2023-04-06T15:27:11;100877.59;;;13.32;48.81
26775;BME280;14362;51.902;7.626;2023-04-06T15:31:13;100879.63;;;13.24;50.29
26775;BME280;14362;51.902;7.626;2023-04-06T15:35:15;100878.88;;;13.35;50.32
26775;BME280;14362;51.902;7.626;2023-04-06T15:39:17;100877.72;;;13.36;51.26
26775;BME280;14362;51.902;7.626;2023-04-06T15:43:19;100872.81;;;13.33;50.86
26775;BME280;14362;51.902;7.626;2023-04-06T15:47:21;100879.25;;;13.33;52.35
26775;BME280;14362;51.902;7.626;2023-04-06T15:51:22;100874.50;;;13.26;52.70
26775;BME280;14362;51.902;7.626;2023-04-06T15:55:24;100876.56;;;13.17;53.15
26775;BME280;14362;51.902;7.626;2023-04-06T15:59:27;100879.66;;;13.15;53.65
26775;BME280;14362;51.902;7.626;2023-04-06T16:03:28;100873.53;;;13.22;54.05
26775;BME280;14362;51.902;7.626;2023-04-06T16:07:30;100878.72;;;13.11;54.53
26775;BME280;14362;51.902;7.626;2023-04-06T16:11:32;100876.91;;;13.07;53.62
26775;BME280;14362;51.902;7.626;2023-04-06T16:15:34;100884.56;;;12.89;54.24
26775;BME280;14362;51.902;7.626;2023-04-06T16:19:36;100885.41;;;12.81;56.22
26775;BME280;14362;51.902;7.626;2023-04-06T16:23:37;100884.66;;;12.55;58.35
26775;BME280;14362;51.902;7.626;2023-04-06T16:27:41;100887.66;;;12.50;58.82
26775;BME280;14362;51.902;7.626;2023-04-06T16:31:44;100893.28;;;12.42;59.48
26775;BME280;14362;51.902;7.626;2023-04-06T16:35:47;100894.97;;;12.26;62.48
26775;BME280;14362;51.902;7.626;2023-04-06T16:39:49;100891.00;;;12.19;64.50
26775;BME280;14362;51.902;7.626;2023-04-06T16:43:50;100896.47;;;12.07;66.40
26775;BME280;14362;51.902;7.626;2023-04-06T16:47:53;100894.00;;;12.14;67.62
26775;BME280;14362;51.902;7.626;2023-04-06T16:51:55;100898.91;;;12.08;71.39
26775;BME280;14362;51.902;7.626;2023-04-06T16:56:02;100907.81;;;11.76;74.84
26775;BME280;14362;51.902;7.626;2023-04-06T17:00:05;100908.31;;;11.78;76.27
26775;BME280;14362;51.902;7.626;2023-04-06T17:04:08;100907.97;;;11.80;77.46
26775;BME280;14362;51.902;7.626;2023-04-06T17:08:09;100910.44;;;11.64;80.94
26775;BME280;14362;51.902;7.626;2023-04-06T17:12:11;100916.66;;;11.61;86.02
26775;BME280;14362;51.902;7.626;2023-04-06T17:16:13;100921.19;;;11.40;96.34
26775;BME280;14362;51.902;7.626;2023-04-06T17:20:16;100920.78;;;11.17;100.00
26775;BME280;14362;51.902;7.626;2023-04-06T17:24:17;100939.47;;;10.99;100.00
26775;BME280;14362;51.902;7.626;2023-04-06T17:28:19;100939.25;;;10.96;100.00
26775;BME280;14362;51.902;7.626;2023-04-06T17:32:20;100948.84;;;10.73;100.00
26775;BME280;14362;51.902;7.626;2023-04-06T17:36:23;100948.94;;;10.59;100.00
26775;BME280;14362;51.902;7.626;2023-04-06T17:40:27;100954.03;;;10.35;100.00
26775;BME280;14362;51.902;7.626;2023-04-06T17:44:28;100955.78;;;10.31;100.00
26775;BME280;14362;51.902;7.626;2023-04-06T17:48:29;100969.16;;;10.21;100.00
26775;BME280;14362;51.902;7.626;2023-04-06T17:52:32;100954.47;;;10.07;100.00
26775;BME280;14362;51.902;7.626;2023-04-06T17:56:34;100965.25;;;10.00;100.00
26775;BME280;14362;51.902;7.626;2023-04-06T18:00:35;100965.09;;;9.92;100.00
26775;BME280;14362;51.902;7.626;2023-04-06T18:04:37;100975.47;;;9.78;100.00
26775;BME280;14362;51.902;7.626;2023-04-06T18:08:42;100960.16;;;9.67;100.00
26775;BME280;14362;51.902;7.626;2023-04-06T18:12:44;100965.63;;;9.58;100.00
26775;BME280;14362;51.902;7.626;2023-04-06T18:16:45;100972.44;;;9.52;100.00
26775;BME280;14362;51.902;7.626;2023-04-06T18:20:47;100970.06;;;9.46;100.00
26775;BME280;14362;51.902;7.626;2023-04-06T18:24:49;100977.38;;;9.42;100.00
26775;BME280;14362;51.902;7.626;2023-04-06T18:28:51;100958.34;;;9.35;100.00
26775;BME280;14362;51.902;7.626;2023-04-06T18:32:52;100971.94;;;9.37;100.00
26775;BME280;14362;51.902;7.626;2023-04-06T18:36:53;100967.91;;;9.29;100.00
26775;BME280;14362;51.902;7.626;2023-04-06T18:40:56;100974.50;;;9.20;100.00
26775;BME280;14362;51.902;7.626;2023-04-06T18:44:58;100968.44;;;9.18;100.00
26775;BME280;14362;51.902;7.626;2023-04-06T18:49:00;100979.97;;;9.12;100.00
26775;BME280;14362;51.902;7.626;2023-04-06T18:53:01;100974.75;;;9.10;100.00
26775;BME280;14362;51.902;7.626;2023-04-06T18:57:04;100976.16;;;9.08;100.00
26775;BME280;14362;51.902;7.626;2023-04-06T19:01:05;100982.97;;;9.02;100.00
26775;BME280;14362;51.902;7.626;2023-04-06T19:05:09;100984.41;;;8.99;100.00
26775;BME280;14362;51.902;7.626;2023-04-06T19:09:11;100982.03;;;8.93;100.00
26775;BME280;14362;51.902;7.626;2023-04-06T19:13:13;100981.22;;;8.92;100.00
26775;BME280;14362;51.902;7.626;2023-04-06T19:17:15;100983.03;;;8.83;100.00
26775;BME280;14362;51.902;7.626;2023-04-06T19:21:18;100988.41;;;8.80;100.00
26775;BME280;14362;51.902;7.626;2023-04-06T19:25:19;100990.34;;;8.79;100.00
26775;BME280;14362;51.902;7.626;2023-04-06T19:29:22;100984.16;;;8.69;100.00
26775;BME280;14362;51.902;7.626;2023-04-06T19:33:24;100988.38;;;8.66;100.00
26775;BME280;14362;51.902;7.626;2023-04-06T19:37:26;100978.25;;;8.57;100.00
26775;BME280;14362;51.902;7.626;2023-04-06T19:41:27;100978.34;;;8.52;100.00
26775;BME280;14362;51.902;7.626;2023-04-06T19:45:30;100979.78;;;8.49;100.00
26775;BME280;14362;51.902;7.626;2023-04-06T19:49:31;100981.25;;;8.47;100.00
26775;BME280;14362;51.902;7.626;2023-04-06T19:53:33;100975.25;;;8.40;100.00
26775;BME280;14362;51.902;7.626;2023-04-06T19:57:35;100975.31;;;8.35;100.00
26775;BME280;14362;51.902;7.626;2023-04-06T20:01:38;100971.28;;;8.27;100.00
26775;BME280;14362;51.902;7.626;2023-04-06T20:05:40;100968.31;;;8.24;100.00
26775;BME280;14362;51.902;7.626;2023-04-06T20:09:41;100961.09;;;8.23;100.00
26775;BME280;14362;51.902;7.626;2023-04-06T20:13:43;100959.25;;;8.18;100.00
26775;BME280;14362;51.902;7.626;2023-04-06T20:17:45;100962.56;;;8.34;100.00
26775;BME280;14362;51.902;7.626;2023-04-06T20:21:47;100962.81;;;8.19;100.00
26775;BME280;14362;51.902;7.626;2023-04-06T20:25:48;100957.09;;;8.10;100.00
26775;BME280;14362;51.902;7.626;2023-04-06T20:29:50;100962.34;;;8.12;100.00
26775;BME280;14362;51.902;7.626;2023-04-06T20:33:52;100959.53;;;8.17;100.00
26775;BME280;14362;51.902;7.626;2023-04-06T20:37:54;100955.97;;;8.11;100.00
26775;BME280;14362;51.902;7.626;2023-04-06T20:41:55;100945.78;;;8.07;100.00
26775;BME280;14362;51.902;7.626;2023-04-06T20:45:58;100949.97;;;8.05;100.00
26775;BME280;14362;51.902;7.626;2023-04-06T20:50:02;100941.56;;;8.09;100.00
26775;BME280;14362;51.902;7.626;2023-04-06T20:54:04;100943.03;;;8.07;100.00
26775;BME280;14362;51.902;7.626;2023-04-06T20:58:06;100944.06;;;8.11;100.00
26775;BME280;14362;51.902;7.626;2023-04-06T21:02:07;100943.91;;;8.03;100.00
26775;BME280;14362;51.902;7.626;2023-04-06T21:06:10;100930.41;;;7.96;100.00